createdAt,value
2022-12-03T00:02:43.086Z,97.90
2022-12-03T00:05:11.938Z,98.40
2022-12-03T00:07:41.824Z,99.10
2022-12-03T00:10:10.824Z,97.90
2022-12-03T00:12:38.814Z,97.60
2022-12-03T00:15:08.149Z,97.70
2022-12-03T00:17:36.222Z,97.60
2022-12-03T00:20:05.032Z,96.40
2022-12-03T00:22:33.120Z,96.30
2022-12-03T00:25:02.502Z,96.40
2022-12-03T00:27:30.432Z,95.70
2022-12-03T00:29:58.408Z,96.20
2022-12-03T00:32:26.349Z,96.10
2022-12-03T00:34:54.537Z,96.10
2022-12-03T00:37:22.846Z,95.20
2022-12-03T00:39:50.854Z,94.90
2022-12-03T00:42:20.176Z,94.50
2022-12-03T00:44:48.172Z,94.50
2022-12-03T00:47:16.157Z,94.30
2022-12-03T00:49:44.139Z,94.40
2022-12-03T00:52:12.062Z,94.80
2022-12-03T00:54:40.052Z,95.20
2022-12-03T00:57:08.034Z,94.90
2022-12-03T00:59:37.356Z,95.20
2022-12-03T01:02:05.494Z,95.60
2022-12-03T01:04:33.853Z,95.50
2022-12-03T01:07:02.340Z,96.10
2022-12-03T01:09:30.388Z,96.20
2022-12-03T01:11:58.519Z,96.40
2022-12-03T01:14:26.683Z,96.10
2022-12-03T01:16:56.015Z,96.80
2022-12-03T01:19:24.452Z,96.50
2022-12-03T01:21:53.470Z,96.60
2022-12-03T01:24:21.634Z,96.20
2022-12-03T01:26:49.656Z,95.30
2022-12-03T01:29:17.610Z,96.00
2022-12-03T01:32:03.347Z,96.50
2022-12-03T01:34:32.703Z,96.60
2022-12-03T01:37:00.688Z,96.40
2022-12-03T01:39:28.806Z,96.40
2022-12-03T01:41:58.734Z,96.10
2022-12-03T01:44:30.002Z,96.30
2022-12-03T01:46:59.418Z,96.40
2022-12-03T01:49:30.225Z,96.20
2022-12-03T01:52:01.153Z,95.80
2022-12-03T01:54:35.680Z,96.10
2022-12-03T01:57:03.795Z,95.50
2022-12-03T01:59:36.531Z,95.10
2022-12-03T02:02:13.899Z,94.80
2022-12-03T02:04:42.213Z,94.50
2022-12-03T02:07:26.640Z,94.90
2022-12-03T02:09:56.632Z,95.00
2022-12-03T02:12:28.553Z,95.10
2022-12-03T02:14:57.132Z,95.10
2022-12-03T02:17:25.170Z,95.40
2022-12-03T02:19:53.965Z,95.40
2022-12-03T02:22:35.642Z,95.10
2022-12-03T02:25:26.889Z,95.20
2022-12-03T02:27:55.862Z,95.60
2022-12-03T02:30:26.794Z,95.30
2022-12-03T02:32:56.341Z,95.40
2022-12-03T02:35:26.581Z,95.70
2022-12-03T02:37:59.283Z,95.80
2022-12-03T02:40:54.597Z,95.70
2022-12-03T02:43:22.681Z,95.90
2022-12-03T02:45:53.169Z,95.90
2022-12-03T02:48:24.325Z,95.80
2022-12-03T02:50:54.797Z,96.00
2022-12-03T02:53:25.839Z,95.30
2022-12-03T02:55:58.908Z,94.80
2022-12-03T02:58:29.277Z,94.10
2022-12-03T03:00:57.500Z,94.60
2022-12-03T03:03:26.775Z,95.10
2022-12-03T03:05:56.697Z,95.10
2022-12-03T03:08:26.204Z,95.10
2022-12-03T03:10:56.366Z,94.80
2022-12-03T03:13:24.919Z,95.40
2022-12-03T03:15:53.138Z,95.10
2022-12-03T03:18:21.205Z,95.60
2022-12-03T03:20:49.377Z,94.70
2022-12-03T03:23:19.902Z,94.70
2022-12-03T03:25:49.607Z,95.80
2022-12-03T03:28:19.654Z,95.50
2022-12-03T03:30:48.267Z,95.10
2022-12-03T03:33:17.140Z,95.50
2022-12-03T03:35:48.230Z,95.40
2022-12-03T03:38:16.663Z,95.80
2022-12-03T03:40:45.085Z,96.50
2022-12-03T03:43:13.987Z,97.40
2022-12-03T03:45:43.963Z,97.00
2022-12-03T03:48:13.299Z,97.10
2022-12-03T03:50:41.969Z,96.90
2022-12-03T03:53:10.520Z,96.80
2022-12-03T03:55:39.941Z,96.60
2022-12-03T03:58:08.193Z,96.30
2022-12-03T04:00:37.301Z,96.00
2022-12-03T04:03:07.654Z,95.40
2022-12-03T04:05:35.666Z,95.00
2022-12-03T04:08:03.716Z,95.40
2022-12-03T04:10:49.375Z,95.30
2022-12-03T04:13:17.378Z,95.50
2022-12-03T04:15:45.320Z,95.30
2022-12-03T04:18:31.895Z,95.90
2022-12-03T04:21:13.756Z,95.80
2022-12-03T04:23:41.739Z,95.20
2022-12-03T04:26:27.084Z,94.90
2022-12-03T04:28:55.170Z,95.20
2022-12-03T04:31:40.538Z,95.00
2022-12-03T04:34:28.335Z,94.90
2022-12-03T04:36:56.323Z,95.10
2022-12-03T04:39:24.362Z,95.60
2022-12-03T04:41:52.329Z,94.60
2022-12-03T04:44:36.684Z,94.20
2022-12-03T04:47:08.222Z,94.00
2022-12-03T04:49:39.304Z,94.60
2022-12-03T04:52:07.666Z,94.90
2022-12-03T04:54:35.788Z,95.10
2022-12-03T04:57:04.599Z,95.20
2022-12-03T04:59:33.238Z,94.70
2022-12-03T05:02:01.344Z,94.70
2022-12-03T05:04:29.644Z,94.90
2022-12-03T05:06:59.152Z,95.20
2022-12-03T05:09:27.085Z,94.90
2022-12-03T05:11:55.170Z,94.30
2022-12-03T05:14:23.206Z,93.30
2022-12-03T05:16:51.362Z,92.70
2022-12-03T05:19:19.451Z,93.00
2022-12-03T05:21:46.449Z,93.50
2022-12-03T05:24:15.772Z,93.60
2022-12-03T05:26:43.679Z,94.30
2022-12-03T05:29:11.663Z,94.50
2022-12-03T05:31:39.635Z,93.90
2022-12-03T05:34:07.635Z,94.00
2022-12-03T05:36:35.633Z,94.60
2022-12-03T05:39:03.598Z,94.40
2022-12-03T05:41:49.372Z,93.80
2022-12-03T05:44:20.500Z,93.90
2022-12-03T05:46:48.880Z,93.80
2022-12-03T05:49:16.858Z,93.70
2022-12-03T05:51:44.849Z,94.00
2022-12-03T05:54:12.827Z,93.70
2022-12-03T05:56:42.166Z,93.60
2022-12-03T05:59:10.198Z,94.50
2022-12-03T06:01:38.191Z,94.60
2022-12-03T06:04:06.471Z,94.30
2022-12-03T06:06:34.561Z,93.10
2022-12-03T06:09:02.562Z,93.30
2022-12-03T06:11:30.895Z,92.90
2022-12-03T06:14:00.214Z,93.50
2022-12-03T06:16:28.395Z,93.60
2022-12-03T06:18:56.444Z,93.40
2022-12-03T06:21:24.546Z,93.60
2022-12-03T06:23:52.513Z,93.60
2022-12-03T06:28:49.741Z,93.50
2022-12-03T06:31:19.119Z,93.60
2022-12-03T06:33:47.148Z,93.40
2022-12-03T06:36:17.791Z,93.20
2022-12-03T06:38:49.490Z,93.00
2022-12-03T06:41:17.471Z,92.60
2022-12-03T06:43:45.508Z,92.70
2022-12-03T06:46:13.631Z,93.10
2022-12-03T06:48:43.018Z,92.70
2022-12-03T06:51:10.966Z,92.50
2022-12-03T06:53:38.923Z,92.50
2022-12-03T06:56:07.521Z,92.30
2022-12-03T06:58:35.548Z,92.30
2022-12-03T07:01:03.536Z,92.80
2022-12-03T07:03:31.514Z,93.00
2022-12-03T07:06:00.927Z,93.10
2022-12-03T07:08:29.047Z,93.00
2022-12-03T07:10:57.051Z,93.50
2022-12-03T07:13:25.328Z,93.80
2022-12-03T07:15:53.370Z,93.40
2022-12-03T07:18:21.439Z,93.00
2022-12-03T07:20:49.448Z,93.30
2022-12-03T07:23:18.799Z,93.30
2022-12-03T07:25:46.794Z,94.30
2022-12-03T07:28:14.747Z,93.60
2022-12-03T07:30:42.676Z,93.90
2022-12-03T07:33:10.681Z,93.60
2022-12-03T07:35:38.601Z,94.40
2022-12-03T07:38:06.549Z,95.20
2022-12-03T07:40:35.861Z,95.30
2022-12-03T07:43:03.821Z,95.60
2022-12-03T07:45:31.851Z,95.70
2022-12-03T07:47:59.780Z,95.90
2022-12-03T07:50:28.345Z,96.10
2022-12-03T07:52:56.509Z,95.50
2022-12-03T07:55:25.244Z,95.20
2022-12-03T07:57:54.653Z,95.30
2022-12-03T08:00:23.415Z,94.90
2022-12-03T08:02:51.445Z,93.10
2022-12-03T08:05:19.644Z,93.40
2022-12-03T08:07:47.781Z,94.10
2022-12-03T08:10:15.910Z,94.50
2022-12-03T08:12:43.925Z,94.70
2022-12-03T08:15:16.050Z,93.30
2022-12-03T08:20:18.297Z,93.30
2022-12-03T08:22:48.067Z,94.50
2022-12-03T08:25:20.818Z,94.70
2022-12-03T08:27:48.945Z,94.60
2022-12-03T08:30:19.736Z,94.20
2022-12-03T08:32:48.686Z,93.60
2022-12-03T08:35:24.333Z,94.20
2022-12-03T08:38:12.263Z,94.00
2022-12-03T08:40:44.750Z,93.90
2022-12-03T08:43:19.362Z,93.90
2022-12-03T08:45:49.978Z,93.70
2022-12-03T08:48:28.712Z,93.50
2022-12-03T08:50:58.762Z,94.00
2022-12-03T08:53:37.752Z,94.10
2022-12-03T08:56:14.608Z,95.00
2022-12-03T08:58:44.959Z,94.30
2022-12-03T09:01:45.406Z,95.20
2022-12-03T09:04:24.871Z,95.60
2022-12-03T09:06:54.288Z,95.30
2022-12-03T09:09:22.888Z,96.20
2022-12-03T09:11:52.062Z,96.40
2022-12-03T09:14:22.540Z,95.70
2022-12-03T09:16:55.706Z,95.70
2022-12-03T09:19:24.728Z,94.90
2022-12-03T09:21:55.261Z,94.90
2022-12-03T09:24:23.263Z,94.30
2022-12-03T09:26:51.321Z,94.50
2022-12-03T09:29:19.400Z,93.30
2022-12-03T09:31:47.510Z,94.00
2022-12-03T09:34:16.934Z,93.60
2022-12-03T09:36:44.916Z,92.40
2022-12-03T09:39:13.116Z,93.00
2022-12-03T09:41:41.558Z,91.50
2022-12-03T09:44:17.142Z,91.90
2022-12-03T09:46:48.965Z,90.90
2022-12-03T09:49:20.347Z,90.30
2022-12-03T09:51:48.512Z,90.80
2022-12-03T09:54:24.729Z,90.70
2022-12-03T09:56:53.483Z,90.00
2022-12-03T09:59:22.959Z,90.80
2022-12-03T10:01:51.243Z,91.30
2022-12-03T10:04:21.362Z,90.90
2022-12-03T10:06:49.623Z,91.30
2022-12-03T10:09:24.611Z,91.20
2022-12-03T10:11:53.081Z,92.30
2022-12-03T10:14:21.465Z,91.60
2022-12-03T10:16:49.879Z,91.00
2022-12-03T10:19:24.014Z,92.30
2022-12-03T10:21:52.341Z,92.50
2022-12-03T10:24:27.148Z,92.40
2022-12-03T10:26:57.475Z,90.80
2022-12-03T10:29:33.257Z,90.70
2022-12-03T10:32:04.733Z,91.40
2022-12-03T10:34:35.964Z,91.90
2022-12-03T10:37:12.419Z,91.30
2022-12-03T10:39:58.743Z,91.20
2022-12-03T10:42:28.371Z,91.40
2022-12-03T10:45:15.297Z,90.60
2022-12-03T10:47:44.136Z,91.00
2022-12-03T10:50:20.247Z,90.50
2022-12-03T10:52:48.315Z,89.50
2022-12-03T10:55:16.999Z,88.60
2022-12-03T10:57:46.105Z,86.60
2022-12-03T11:00:18.201Z,88.00
2022-12-03T11:02:51.677Z,85.30
2022-12-03T11:05:27.753Z,86.20
2022-12-03T11:07:56.246Z,84.50
2022-12-03T11:10:24.634Z,84.90
2022-12-03T11:13:30.141Z,83.60
2022-12-03T11:15:58.780Z,82.90
2022-12-03T11:19:01.110Z,85.50
2022-12-03T11:21:31.224Z,85.20
2022-12-03T11:24:21.850Z,84.90
2022-12-03T11:27:23.116Z,83.70
2022-12-03T11:29:59.622Z,83.50
2022-12-03T11:33:00.334Z,82.00
2022-12-03T11:35:35.760Z,85.20
2022-12-03T11:38:36.775Z,84.80
2022-12-03T11:41:10.317Z,87.00
2022-12-03T11:44:28.184Z,87.60
2022-12-03T11:46:58.920Z,89.30
2022-12-03T11:49:48.805Z,87.40
2022-12-03T11:52:27.422Z,87.50
2022-12-03T11:55:02.255Z,86.10
2022-12-03T11:57:34.913Z,84.60
2022-12-03T12:00:08.537Z,84.90
2022-12-03T12:02:36.565Z,85.30
2022-12-03T12:05:23.125Z,85.20
2022-12-03T12:07:51.775Z,85.40
2022-12-03T12:10:39.175Z,84.00
2022-12-03T12:13:41.108Z,83.60
2022-12-03T12:16:10.062Z,85.90
2022-12-03T12:18:40.599Z,85.80
2022-12-03T12:21:40.418Z,88.30
2022-12-03T12:24:35.920Z,89.10
2022-12-03T12:27:07.450Z,87.50
2022-12-03T12:29:38.614Z,87.80
2022-12-03T12:32:16.063Z,88.50
2022-12-03T12:34:47.255Z,89.30
2022-12-03T12:37:20.884Z,88.30
2022-12-03T12:39:49.157Z,86.90
2022-12-03T12:42:31.671Z,86.50
2022-12-03T12:45:06.298Z,88.00
2022-12-03T12:50:10.404Z,87.70
2022-12-03T12:52:42.043Z,85.00
2022-12-03T12:55:12.265Z,83.90
2022-12-03T12:57:40.455Z,82.80
2022-12-03T13:00:15.816Z,82.70
2022-12-03T13:05:15.610Z,80.20
2022-12-03T13:07:44.889Z,80.40
2022-12-03T13:10:36.593Z,81.70
2022-12-03T13:13:23.867Z,83.10
2022-12-03T13:15:59.655Z,84.50
2022-12-03T13:18:46.940Z,84.30
2022-12-03T13:21:28.016Z,84.50
2022-12-03T13:23:57.532Z,85.00
2022-12-03T13:26:36.542Z,84.50
2022-12-03T13:29:14.679Z,81.10
2022-12-03T13:31:50.397Z,82.60
2022-12-03T13:34:22.540Z,82.50
2022-12-03T13:36:57.626Z,81.70
2022-12-03T13:39:31.892Z,80.70
2022-12-03T13:42:27.922Z,80.80
2022-12-03T13:44:57.418Z,80.80
2022-12-03T13:47:26.980Z,82.50
2022-12-03T13:49:57.548Z,83.30
2022-12-03T13:52:27.101Z,84.60
2022-12-03T13:54:57.148Z,84.20
2022-12-03T13:57:25.163Z,85.50
2022-12-03T13:59:53.555Z,84.90
2022-12-03T14:02:21.808Z,86.70
2022-12-03T14:04:54.200Z,83.80
2022-12-03T14:07:26.607Z,85.60
2022-12-03T14:09:54.846Z,87.00
2022-12-03T14:12:33.570Z,87.70
2022-12-03T14:15:02.097Z,89.50
2022-12-03T14:17:30.796Z,87.10
2022-12-03T14:20:01.669Z,86.00
2022-12-03T14:22:29.966Z,85.40
2022-12-03T14:24:58.348Z,86.50
2022-12-03T14:27:27.429Z,89.00
2022-12-03T14:32:24.505Z,89.10
2022-12-03T14:39:50.950Z,88.60
2022-12-03T14:52:15.036Z,85.70
2022-12-03T14:59:42.719Z,84.20
2022-12-03T15:07:08.123Z,84.70
2022-12-03T15:14:34.581Z,84.60
2022-12-03T15:17:02.623Z,84.30
